Accueil
METAR-TAF:

METAR-TAF

Aéroports :

Aéroport international d'Exeter

Exeter, Angleterre

latitude: 50-44N, longitude: 003-25W, altitude: 30 m

Observation

Le bulletin a été fait il y a 38 minutes, à 07:20 UTC
Vent 7 kt de sud/sud-ouest
Température 19°C
Humidité 83%
Pression 1019 hPa
Visibilité 10 km ou plus
Nuages fragmentés à une hauteur de 1800 ft

METAR: EGTE 190720Z 21007KT 9999 BKN018 19/16 Q1019

Heure: 08:58 (07:58 UTC)

Prévision

Le bulletin a été fait il y a 2 heures et 36 minutes, à 05:22 UTC
Prévision valable du 19 à 06 UTC au 19 à 15 UTC
Vent 10 kt de sud-ouest
Visibilité 10 km ou plus
Nuages fragmentés à une hauteur de 1200 ft
Temporairement
du 19 à 06 UTC au 19 à 15 UTC
Nuages épars à une hauteur de 2000 ft

TAF: EGTE 190522Z 1906/1915 22010KT 9999 BKN012 TEMPO 1906/1915 SCT020

Observations et prévisions météorologiques de plus de 4000 aéroports (messages METAR et TAF).

Les stations disponibles sont représentées par des disques jaunes et rouges sur la carte.

Passer la souris dessus pour voir le nom de la station.

Cliquer dessus pour voir les observations et prévisions météorologiques.

Pour changer de carte: cliquez sur les boutons verts avec une croix noire pour zoomer, sur le bouton vert avec un tiret pour effectuer un zoom arrière, ou sur les flèches vertes pour les cartes adjacentes.


METAR-TAF: